createdAt,value
2022-08-29T00:02:00.776Z,55.86
2022-08-29T00:04:27.815Z,56.14
2022-08-29T00:06:58.058Z,56.13
2022-08-29T00:09:25.339Z,56.11
2022-08-29T00:11:52.130Z,56.39
2022-08-29T00:14:23.371Z,56.49
2022-08-29T00:16:54.585Z,56.57
2022-08-29T00:19:23.034Z,56.69
2022-08-29T00:21:53.929Z,56.86
2022-08-29T00:24:20.955Z,57.17
2022-08-29T00:26:47.866Z,57.33
2022-08-29T00:29:14.750Z,57.39
2022-08-29T00:31:41.612Z,57.11
2022-08-29T00:34:08.536Z,57.71
2022-08-29T00:36:36.219Z,58.15
2022-08-29T00:39:05.136Z,57.58
2022-08-29T00:41:36.551Z,57.68
2022-08-29T00:44:05.355Z,57.81
2022-08-29T00:46:41.349Z,57.96
2022-08-29T00:49:41.998Z,57.77
2022-08-29T00:52:33.636Z,58.14
2022-08-29T00:55:02.134Z,57.97
2022-08-29T00:57:31.760Z,58.28
2022-08-29T01:00:01.067Z,58.55
2022-08-29T01:02:28.426Z,58.49
2022-08-29T01:04:55.320Z,58.76
2022-08-29T01:07:25.694Z,58.61
2022-08-29T01:09:53.841Z,58.89
2022-08-29T01:12:23.182Z,59.18
2022-08-29T01:14:56.034Z,59.24
2022-08-29T01:17:30.979Z,59.06
2022-08-29T01:20:36.226Z,59.19
2022-08-29T01:23:11.919Z,59.35
2022-08-29T01:25:44.645Z,59.90
2022-08-29T01:28:42.585Z,60.27
2022-08-29T01:31:15.422Z,60.42
2022-08-29T01:34:02.338Z,60.54
2022-08-29T01:36:39.514Z,60.97
2022-08-29T01:39:10.046Z,61.12
2022-08-29T01:41:37.676Z,61.43
2022-08-29T01:44:11.766Z,61.71
2022-08-29T01:46:39.206Z,61.73
2022-08-29T01:49:08.478Z,62.06
2022-08-29T01:51:37.576Z,62.10
2022-08-29T01:54:09.172Z,62.21
2022-08-29T01:56:40.411Z,62.53
2022-08-29T01:59:09.415Z,62.85
2022-08-29T02:01:38.977Z,62.80
2022-08-29T02:04:08.085Z,62.95
2022-08-29T02:06:36.176Z,63.12
2022-08-29T02:09:04.318Z,63.41
2022-08-29T02:11:32.727Z,63.08
2022-08-29T02:13:59.910Z,63.06
2022-08-29T02:16:28.649Z,63.14
2022-08-29T02:18:56.394Z,63.21
2022-08-29T02:21:24.690Z,62.80
2022-08-29T02:23:52.182Z,62.79
2022-08-29T02:26:22.771Z,62.75
2022-08-29T02:28:53.032Z,62.93
2022-08-29T02:31:21.860Z,63.36
2022-08-29T02:33:49.177Z,63.31
2022-08-29T02:36:19.741Z,63.43
2022-08-29T02:38:46.945Z,63.78
2022-08-29T02:41:14.499Z,64.09
2022-08-29T02:43:42.212Z,63.95
2022-08-29T02:46:14.997Z,64.12
2022-08-29T02:48:49.200Z,64.40
2022-08-29T02:51:31.057Z,64.87
2022-08-29T02:53:58.744Z,65.10
2022-08-29T02:56:26.021Z,65.31
2022-08-29T02:58:53.032Z,65.42
2022-08-29T03:01:21.700Z,65.34
2022-08-29T03:03:50.277Z,65.38
2022-08-29T03:06:18.588Z,65.49
2022-08-29T03:08:45.604Z,65.26
2022-08-29T03:11:12.595Z,65.47
2022-08-29T03:13:40.922Z,65.25
2022-08-29T03:16:08.618Z,65.19
2022-08-29T03:18:38.217Z,65.57
2022-08-29T03:21:05.074Z,65.24
2022-08-29T03:23:33.218Z,65.10
2022-08-29T03:26:00.039Z,65.30
2022-08-29T03:28:31.077Z,65.36
2022-08-29T03:30:57.850Z,66.17
2022-08-29T03:33:27.143Z,65.82
2022-08-29T03:35:53.986Z,66.05
2022-08-29T03:38:25.603Z,65.88
2022-08-29T03:40:54.103Z,66.80
2022-08-29T03:43:25.045Z,66.71
2022-08-29T03:45:52.101Z,66.58
2022-08-29T03:48:21.097Z,67.02
2022-08-29T03:50:47.977Z,66.60
2022-08-29T03:53:14.964Z,66.83
2022-08-29T03:55:41.897Z,66.99
2022-08-29T03:58:09.727Z,67.53
2022-08-29T04:00:39.115Z,66.92
2022-08-29T04:03:06.065Z,67.20
2022-08-29T04:05:33.003Z,67.76
2022-08-29T04:08:00.300Z,67.24
2022-08-29T04:10:37.620Z,67.75
2022-08-29T04:13:06.178Z,67.40
2022-08-29T04:15:33.484Z,67.76
2022-08-29T04:18:06.807Z,67.81
2022-08-29T04:20:37.734Z,68.00
2022-08-29T04:23:06.086Z,68.16
2022-08-29T04:25:37.381Z,68.66
2022-08-29T04:28:09.864Z,68.56
2022-08-29T04:30:37.726Z,68.53
2022-08-29T04:33:04.732Z,68.47
2022-08-29T04:35:35.151Z,68.54
2022-08-29T04:38:02.601Z,68.59
2022-08-29T04:40:29.642Z,68.47
2022-08-29T04:42:58.112Z,68.65
2022-08-29T04:45:25.186Z,68.87
2022-08-29T04:47:52.209Z,68.56
2022-08-29T04:50:22.319Z,68.50
2022-08-29T04:52:57.862Z,68.77
2022-08-29T04:55:25.921Z,68.62
2022-08-29T04:57:59.043Z,68.53
2022-08-29T05:00:30.553Z,68.34
2022-08-29T05:02:58.275Z,68.47
2022-08-29T05:05:25.239Z,67.75
2022-08-29T05:07:52.275Z,67.83
2022-08-29T05:10:22.520Z,67.56
2022-08-29T05:12:52.148Z,67.30
2022-08-29T05:15:19.053Z,66.83
2022-08-29T05:17:48.649Z,66.26
2022-08-29T05:20:16.976Z,65.82
2022-08-29T05:22:43.781Z,65.24
2022-08-29T05:25:17.348Z,64.98
2022-08-29T05:27:46.007Z,64.58
2022-08-29T05:30:19.926Z,64.22
2022-08-29T05:33:01.778Z,63.39
2022-08-29T05:35:28.580Z,62.36
2022-08-29T05:37:58.048Z,61.96
2022-08-29T05:40:26.193Z,61.93
2022-08-29T05:42:53.140Z,60.90
2022-08-29T05:45:19.996Z,60.59
2022-08-29T05:47:46.884Z,59.94
2022-08-29T05:50:18.014Z,59.23
2022-08-29T05:52:46.627Z,57.42
2022-08-29T05:55:13.526Z,56.33
2022-08-29T05:57:40.395Z,56.33
2022-08-29T06:00:13.161Z,55.43
2022-08-29T06:02:40.927Z,54.66
2022-08-29T06:05:08.098Z,53.71
2022-08-29T06:07:37.668Z,51.46
2022-08-29T06:10:06.854Z,49.52
2022-08-29T06:12:36.422Z,47.07
2022-08-29T06:15:07.450Z,43.12
2022-08-29T06:17:35.560Z,39.74
2022-08-29T06:20:02.627Z,38.16
2022-08-29T06:22:30.184Z,39.42
2022-08-29T06:24:57.798Z,38.78
2022-08-29T06:27:26.225Z,39.44
2022-08-29T06:29:53.876Z,39.63
2022-08-29T06:32:20.767Z,40.12
2022-08-29T06:34:47.682Z,39.75
2022-08-29T06:37:14.677Z,39.92
2022-08-29T06:39:43.591Z,39.96
2022-08-29T06:42:14.613Z,40.26
2022-08-29T06:44:44.619Z,40.55
2022-08-29T06:47:11.799Z,40.79
2022-08-29T06:49:38.640Z,41.22
2022-08-29T06:52:05.493Z,41.32
2022-08-29T06:54:33.423Z,41.38
2022-08-29T06:57:00.496Z,41.44
2022-08-29T06:59:28.947Z,40.77
2022-08-29T07:01:55.831Z,39.64
2022-08-29T07:04:26.620Z,37.26
2022-08-29T07:06:57.972Z,35.47
2022-08-29T07:09:26.114Z,34.08
2022-08-29T07:11:53.990Z,33.20
2022-08-29T07:14:20.938Z,30.77
2022-08-29T07:16:48.016Z,27.93
2022-08-29T07:19:14.921Z,26.38
2022-08-29T07:21:42.256Z,25.50
2022-08-29T07:24:10.737Z,27.26
2022-08-29T07:26:42.415Z,26.91
2022-08-29T07:29:15.988Z,26.11
2022-08-29T07:31:44.197Z,26.50
2022-08-29T07:34:11.340Z,25.92
2022-08-29T07:36:40.074Z,24.67
2022-08-29T07:39:11.977Z,24.22
2022-08-29T07:41:41.080Z,23.34
2022-08-29T07:44:08.566Z,22.96
2022-08-29T07:46:38.958Z,23.27
2022-08-29T07:49:06.725Z,22.50
2022-08-29T07:51:34.362Z,22.67
2022-08-29T07:54:01.596Z,22.43
2022-08-29T07:56:42.670Z,23.60
2022-08-29T07:59:10.092Z,23.14
2022-08-29T08:01:37.159Z,22.70
2022-08-29T08:04:04.976Z,23.39
2022-08-29T08:06:34.571Z,22.05
2022-08-29T08:09:05.072Z,23.07
2022-08-29T08:11:34.654Z,22.91
2022-08-29T08:14:05.650Z,21.87
2022-08-29T08:16:33.253Z,21.35
2022-08-29T08:19:07.264Z,21.04
2022-08-29T08:21:38.626Z,20.74
2022-08-29T08:24:19.593Z,20.39
2022-08-29T08:26:48.779Z,20.54
2022-08-29T08:29:16.540Z,21.35
2022-08-29T08:31:49.577Z,20.57
2022-08-29T08:34:18.265Z,21.09
2022-08-29T08:36:45.772Z,21.30
2022-08-29T08:39:15.549Z,20.61
2022-08-29T08:41:57.072Z,20.88
2022-08-29T08:44:28.933Z,20.25
2022-08-29T08:47:02.270Z,20.76
2022-08-29T08:49:42.785Z,20.79
2022-08-29T08:52:16.199Z,20.30
2022-08-29T08:54:51.976Z,21.17
2022-08-29T08:57:21.753Z,20.64
2022-08-29T08:59:55.927Z,21.64
2022-08-29T09:03:14.949Z,21.29
2022-08-29T09:06:07.075Z,21.29
2022-08-29T09:08:49.797Z,21.10
2022-08-29T09:11:22.557Z,21.49
2022-08-29T09:14:01.936Z,21.75
2022-08-29T09:16:41.232Z,22.22
2022-08-29T09:19:11.414Z,22.98
2022-08-29T09:21:53.922Z,22.49
2022-08-29T09:24:47.611Z,22.38
2022-08-29T09:27:31.439Z,22.40
2022-08-29T09:30:12.008Z,22.69
2022-08-29T09:33:09.242Z,23.64
2022-08-29T09:35:44.616Z,24.22
2022-08-29T09:38:17.609Z,24.44
2022-08-29T09:40:49.915Z,24.31
2022-08-29T09:43:44.851Z,24.95
2022-08-29T09:46:11.912Z,24.71
2022-08-29T09:48:42.464Z,25.76
2022-08-29T09:51:22.278Z,25.34
2022-08-29T09:53:51.900Z,25.60
2022-08-29T09:56:27.304Z,27.11
2022-08-29T09:59:05.347Z,26.57
2022-08-29T10:01:32.611Z,26.97
2022-08-29T10:04:05.495Z,27.61
2022-08-29T10:06:44.321Z,27.92
2022-08-29T10:09:32.543Z,27.93
2022-08-29T10:12:09.952Z,28.50
2022-08-29T10:14:41.262Z,28.69
2022-08-29T10:17:48.222Z,29.31
2022-08-29T10:20:16.895Z,29.33
2022-08-29T10:22:53.892Z,29.63
2022-08-29T10:25:36.599Z,29.15
2022-08-29T10:28:07.916Z,29.51
2022-08-29T10:30:49.265Z,29.70
2022-08-29T10:33:25.875Z,30.70
2022-08-29T10:36:00.556Z,31.20
2022-08-29T10:39:04.228Z,31.58
2022-08-29T10:41:39.848Z,31.14
2022-08-29T10:47:09.019Z,31.17
2022-08-29T10:49:46.312Z,30.94
2022-08-29T10:52:31.152Z,31.10
2022-08-29T10:55:11.451Z,31.24
2022-08-29T10:58:02.675Z,31.58
2022-08-29T11:00:45.282Z,31.41
2022-08-29T11:03:36.168Z,31.04
2022-08-29T11:06:11.283Z,30.85
2022-08-29T11:08:46.677Z,30.56
2022-08-29T11:11:19.993Z,30.15
2022-08-29T11:13:56.597Z,31.10
2022-08-29T11:16:46.400Z,31.35
2022-08-29T11:19:21.575Z,31.02
2022-08-29T11:22:16.300Z,31.28
2022-08-29T11:24:47.253Z,31.08
2022-08-29T11:27:54.057Z,31.01
2022-08-29T11:30:28.056Z,31.09
2022-08-29T11:33:06.715Z,31.17
2022-08-29T11:36:05.032Z,31.07
2022-08-29T11:38:40.466Z,30.67
2022-08-29T11:41:29.378Z,29.60
2022-08-29T11:44:18.301Z,29.71
2022-08-29T11:46:53.359Z,29.83
2022-08-29T11:49:38.731Z,30.28
2022-08-29T11:52:08.480Z,30.18
2022-08-29T11:54:39.250Z,30.19
2022-08-29T11:57:09.068Z,30.00
2022-08-29T11:59:53.270Z,30.15
2022-08-29T12:02:30.295Z,29.79
2022-08-29T12:04:59.585Z,30.00
2022-08-29T12:08:02.984Z,30.03
2022-08-29T12:11:03.863Z,30.85
2022-08-29T12:13:46.092Z,30.54
2022-08-29T12:16:15.661Z,30.90
2022-08-29T12:18:51.153Z,30.13
2022-08-29T12:21:37.327Z,29.92
2022-08-29T12:24:07.747Z,28.76
2022-08-29T12:26:46.347Z,28.97
2022-08-29T12:29:24.664Z,29.57
2022-08-29T12:32:28.525Z,28.77
2022-08-29T12:35:15.471Z,28.69
2022-08-29T12:38:04.616Z,28.49
2022-08-29T12:40:37.685Z,28.37
2022-08-29T12:43:43.929Z,28.32
2022-08-29T12:46:37.454Z,27.25
2022-08-29T12:49:20.111Z,28.52
2022-08-29T12:51:56.264Z,27.91
2022-08-29T12:54:36.990Z,28.80
2022-08-29T12:57:06.904Z,28.66
2022-08-29T12:59:34.232Z,28.51
2022-08-29T13:02:01.713Z,28.48
2022-08-29T13:04:38.997Z,28.47
2022-08-29T13:07:08.906Z,28.16
2022-08-29T13:09:40.167Z,27.63
2022-08-29T13:12:11.813Z,27.14
2022-08-29T13:15:01.531Z,27.26
2022-08-29T13:17:34.734Z,27.27
2022-08-29T13:20:45.537Z,28.20
2022-08-29T13:23:15.480Z,27.22
2022-08-29T13:25:59.119Z,27.04
2022-08-29T13:28:51.337Z,27.34
2022-08-29T13:31:19.035Z,27.07
2022-08-29T13:33:49.788Z,27.40
2022-08-29T13:36:37.361Z,26.99
2022-08-29T13:39:26.367Z,27.58
2022-08-29T13:42:06.591Z,27.84
2022-08-29T13:44:57.664Z,28.09
2022-08-29T13:47:40.413Z,28.70
2022-08-29T13:50:10.296Z,28.25
2022-08-29T13:52:37.190Z,28.30
2022-08-29T13:55:07.375Z,28.19
2022-08-29T13:57:34.871Z,27.12
2022-08-29T14:00:06.132Z,26.54
2022-08-29T14:02:33.979Z,26.56
2022-08-29T14:05:01.224Z,27.07
2022-08-29T14:07:33.801Z,27.21
2022-08-29T14:10:04.658Z,27.25
2022-08-29T14:12:34.513Z,27.43
2022-08-29T14:15:11.851Z,27.96
2022-08-29T14:17:41.390Z,28.22
2022-08-29T14:20:12.598Z,28.39
2022-08-29T14:22:49.104Z,28.21
2022-08-29T14:25:18.310Z,28.70
2022-08-29T14:27:49.638Z,29.47
2022-08-29T14:30:19.812Z,29.58
2022-08-29T14:32:49.538Z,30.01
2022-08-29T14:35:25.859Z,29.21
2022-08-29T14:37:55.432Z,28.92
2022-08-29T14:40:23.378Z,28.51
2022-08-29T14:42:59.159Z,28.09
2022-08-29T14:45:27.852Z,28.27
2022-08-29T14:47:57.725Z,28.42
2022-08-29T14:50:24.793Z,27.92
2022-08-29T14:52:52.262Z,28.03
2022-08-29T14:55:20.682Z,28.52
2022-08-29T14:57:49.927Z,28.15
2022-08-29T15:00:22.324Z,27.84
2022-08-29T15:02:52.354Z,27.90
2022-08-29T15:05:26.187Z,27.80
2022-08-29T15:07:53.094Z,27.75
2022-08-29T15:10:21.397Z,27.34
2022-08-29T15:12:49.210Z,26.79
2022-08-29T15:15:16.145Z,27.38
2022-08-29T15:17:43.636Z,27.56
2022-08-29T15:23:04.320Z,28.61
2022-08-29T15:25:31.209Z,28.73
2022-08-29T15:28:01.048Z,28.49
2022-08-29T15:30:28.265Z,29.13
2022-08-29T15:33:00.930Z,28.57
2022-08-29T15:35:30.758Z,28.96
2022-08-29T15:37:57.663Z,29.46
2022-08-29T15:40:28.345Z,29.15
2022-08-29T15:42:55.167Z,29.13
2022-08-29T15:45:24.826Z,29.26
2022-08-29T15:47:54.237Z,29.34
2022-08-29T15:50:21.490Z,29.37
2022-08-29T15:52:51.675Z,28.79
2022-08-29T15:55:18.638Z,29.27
2022-08-29T15:57:45.621Z,28.92
2022-08-29T16:00:22.504Z,28.29
2022-08-29T16:03:13.036Z,28.37
2022-08-29T16:05:43.665Z,27.91
2022-08-29T16:08:13.450Z,28.17
2022-08-29T16:10:45.911Z,28.26
2022-08-29T16:13:13.008Z,28.23
2022-08-29T16:15:42.114Z,28.53
2022-08-29T16:18:09.648Z,28.66
2022-08-29T16:20:37.995Z,28.68
2022-08-29T16:23:05.704Z,28.78
2022-08-29T16:25:37.837Z,28.65
2022-08-29T16:28:06.235Z,29.01
2022-08-29T16:30:33.716Z,29.24
2022-08-29T16:33:03.694Z,29.61
2022-08-29T16:35:30.647Z,30.08
2022-08-29T16:38:02.664Z,29.76
2022-08-29T16:40:32.721Z,30.08
2022-08-29T16:43:00.905Z,30.21
2022-08-29T16:45:27.798Z,30.18
2022-08-29T16:47:57.873Z,29.89
2022-08-29T16:50:25.590Z,29.89
2022-08-29T16:52:52.601Z,29.84
2022-08-29T16:55:21.232Z,29.85
2022-08-29T16:58:08.088Z,29.92
2022-08-29T17:00:35.041Z,29.78
2022-08-29T17:03:04.736Z,30.37
2022-08-29T17:05:31.644Z,30.64
2022-08-29T17:08:02.289Z,30.55
2022-08-29T17:10:29.242Z,30.81
2022-08-29T17:12:55.987Z,30.75
2022-08-29T17:15:22.940Z,30.46
2022-08-29T17:17:50.010Z,30.82
2022-08-29T17:20:17.061Z,30.59
2022-08-29T17:22:43.976Z,31.07
2022-08-29T17:25:10.925Z,31.20
2022-08-29T17:27:37.774Z,31.14
2022-08-29T17:30:05.782Z,31.46
2022-08-29T17:32:32.651Z,31.07
2022-08-29T17:35:00.220Z,31.31
2022-08-29T17:37:35.973Z,32.17
2022-08-29T17:40:05.703Z,31.88
2022-08-29T17:42:32.725Z,31.91
2022-08-29T17:44:59.662Z,31.92
2022-08-29T17:47:26.893Z,32.12
2022-08-29T17:49:56.946Z,32.17
2022-08-29T17:52:24.027Z,32.72
2022-08-29T17:54:50.847Z,33.14
2022-08-29T17:57:17.844Z,33.11
2022-08-29T17:59:44.597Z,33.02
2022-08-29T18:02:12.044Z,32.83
2022-08-29T18:04:40.013Z,32.74
2022-08-29T18:09:40.038Z,33.03
2022-08-29T18:12:09.337Z,33.37
2022-08-29T18:14:36.286Z,33.60
2022-08-29T18:17:06.107Z,34.14
2022-08-29T18:19:33.103Z,34.14
2022-08-29T18:22:00.060Z,34.23
2022-08-29T18:24:26.833Z,34.33
2022-08-29T18:26:55.245Z,34.71
2022-08-29T18:29:22.091Z,34.70
2022-08-29T18:31:49.212Z,35.02
2022-08-29T18:34:17.198Z,35.48
2022-08-29T18:36:45.272Z,35.57
2022-08-29T18:39:13.325Z,35.69
2022-08-29T18:41:40.420Z,35.90
2022-08-29T18:44:07.402Z,35.99
2022-08-29T18:46:34.337Z,36.43
2022-08-29T18:49:02.232Z,36.80
2022-08-29T18:51:29.251Z,36.61
2022-08-29T18:53:57.034Z,37.04
2022-08-29T18:56:24.230Z,37.14
2022-08-29T18:58:54.614Z,37.14
2022-08-29T19:01:28.359Z,37.20
2022-08-29T19:04:00.611Z,37.28
2022-08-29T19:06:29.401Z,37.52
2022-08-29T19:08:57.015Z,37.77
2022-08-29T19:11:28.130Z,38.02
2022-08-29T19:13:55.095Z,38.20
2022-08-29T19:16:23.876Z,38.37
2022-08-29T19:18:51.771Z,38.50
2022-08-29T19:21:19.803Z,38.76
2022-08-29T19:23:52.597Z,38.73
2022-08-29T19:26:24.288Z,38.81
2022-08-29T19:28:53.140Z,39.09
2022-08-29T19:31:22.797Z,38.89
2022-08-29T19:33:49.899Z,39.12
2022-08-29T19:36:19.794Z,39.32
2022-08-29T19:38:47.193Z,39.48
2022-08-29T19:41:15.580Z,39.46
2022-08-29T19:43:42.696Z,39.80
2022-08-29T19:46:16.723Z,39.99
2022-08-29T19:48:51.267Z,40.47
2022-08-29T19:51:21.495Z,40.52
2022-08-29T19:53:48.766Z,40.76
2022-08-29T19:56:20.085Z,40.75
2022-08-29T19:58:47.651Z,40.76
2022-08-29T20:01:17.267Z,41.04
2022-08-29T20:03:44.524Z,41.14
2022-08-29T20:06:12.302Z,41.24
2022-08-29T20:08:41.818Z,41.54
2022-08-29T20:11:15.940Z,41.67
2022-08-29T20:13:50.147Z,41.94
2022-08-29T20:16:22.276Z,41.92
2022-08-29T20:18:50.464Z,42.16
2022-08-29T20:21:17.548Z,42.17
2022-08-29T20:23:49.156Z,42.50
2022-08-29T20:26:16.441Z,42.61
2022-08-29T20:28:43.497Z,42.74
2022-08-29T20:31:11.318Z,42.74
2022-08-29T20:33:41.291Z,42.69
2022-08-29T20:36:27.291Z,42.82
2022-08-29T20:38:54.433Z,42.65
2022-08-29T20:41:21.809Z,42.89
2022-08-29T20:43:48.676Z,43.29
2022-08-29T20:46:15.622Z,43.67
2022-08-29T20:48:42.588Z,43.26
2022-08-29T20:51:13.405Z,43.79
2022-08-29T20:53:41.805Z,43.74
2022-08-29T20:56:12.165Z,44.00
2022-08-29T20:58:39.015Z,44.19
2022-08-29T21:01:12.472Z,44.45
2022-08-29T21:03:58.096Z,44.51
2022-08-29T21:06:25.352Z,44.37
2022-08-29T21:08:52.530Z,44.52
2022-08-29T21:11:20.507Z,44.66
2022-08-29T21:13:49.046Z,44.72
2022-08-29T21:16:23.358Z,44.88
2022-08-29T21:18:52.763Z,44.87
2022-08-29T21:21:24.014Z,45.18
2022-08-29T21:23:53.764Z,45.16
2022-08-29T21:26:20.735Z,45.29
2022-08-29T21:28:47.676Z,44.92
2022-08-29T21:31:15.497Z,45.28
2022-08-29T21:33:44.816Z,45.09
2022-08-29T21:36:23.283Z,45.36
2022-08-29T21:38:56.386Z,45.64
2022-08-29T21:41:25.262Z,45.65
2022-08-29T21:43:55.189Z,45.66
2022-08-29T21:46:25.489Z,45.28
2022-08-29T21:48:56.566Z,45.68
2022-08-29T21:51:24.426Z,45.76
2022-08-29T21:53:53.115Z,45.99
2022-08-29T21:56:20.313Z,46.11
2022-08-29T21:58:51.658Z,46.02
2022-08-29T22:01:22.865Z,46.05
2022-08-29T22:03:51.783Z,46.06
2022-08-29T22:06:19.001Z,45.81
2022-08-29T22:08:46.528Z,45.98
2022-08-29T22:11:21.198Z,46.16
2022-08-29T22:13:53.317Z,46.04
2022-08-29T22:16:28.746Z,46.38
2022-08-29T22:19:17.557Z,46.45
2022-08-29T22:21:51.875Z,46.66
2022-08-29T22:24:18.995Z,46.56
2022-08-29T22:26:49.831Z,46.64
2022-08-29T22:29:18.076Z,46.97
2022-08-29T22:31:45.159Z,46.95
2022-08-29T22:34:13.594Z,47.23
2022-08-29T22:36:41.362Z,47.13
2022-08-29T22:39:09.579Z,47.31
2022-08-29T22:41:36.877Z,47.15
2022-08-29T22:46:52.910Z,47.18
2022-08-29T22:49:19.951Z,47.08
2022-08-29T22:51:48.159Z,47.27
2022-08-29T22:54:38.874Z,47.42
2022-08-29T22:57:08.927Z,47.14
2022-08-29T22:59:37.222Z,47.32
2022-08-29T23:02:04.695Z,47.24
2022-08-29T23:04:31.864Z,47.03
2022-08-29T23:06:58.744Z,47.25
2022-08-29T23:09:25.550Z,47.50
2022-08-29T23:11:52.395Z,47.17
2022-08-29T23:14:20.912Z,47.31
2022-08-29T23:16:48.304Z,47.35
2022-08-29T23:19:15.367Z,47.95
2022-08-29T23:21:44.585Z,47.71
2022-08-29T23:24:11.697Z,47.95
2022-08-29T23:26:40.600Z,47.95
2022-08-29T23:29:07.444Z,48.05
2022-08-29T23:31:34.365Z,48.15
2022-08-29T23:34:01.409Z,48.41
2022-08-29T23:36:28.372Z,48.54
2022-08-29T23:38:59.817Z,48.86
2022-08-29T23:41:30.559Z,49.15
2022-08-29T23:43:59.346Z,49.12
2022-08-29T23:46:26.650Z,49.06
2022-08-29T23:48:55.443Z,49.25
2022-08-29T23:51:24.508Z,49.14
2022-08-29T23:53:52.781Z,49.19
2022-08-29T23:56:26.584Z,49.30
2022-08-29T23:58:58.686Z,49.38
